Time;durP1;ratioP1;P1;durP2;ratioP2;P2;SDS_P1;SDS_P2;PMS_P1;PMS_P2;Temp;Humidity;BMP_temperature;BMP_pressure;BME280_temperature;BME280_humidity;BME280_pressure;Samples;Min_cycle;Max_cycle;Signal;HPM_P1;HPM_P2
2023/01/21 00:01:13;;;;;;;22.30;4.47;;;0.10;99.90;;;-0.11;100.00;100219.06;4921925;28;20309;-73
2023/01/21 00:03:41;;;;;;;14.27;3.08;;;0.10;99.90;;;-0.11;100.00;100220.78;4924571;28;20246;-73
2023/01/21 00:06:09;;;;;;;11.90;2.60;;;0.20;99.90;;;-0.11;100.00;100223.38;4923754;28;20262;-73
2023/01/21 00:08:36;;;;;;;13.43;2.90;;;0.10;99.90;;;-0.12;100.00;100227.66;4921486;28;20265;-73
2023/01/21 00:11:08;;;;;;;15.32;3.35;;;0.10;99.90;;;-0.10;100.00;100230.34;4922641;28;20238;-73
2023/01/21 00:13:35;;;;;;;10.23;2.35;;;0.10;99.90;;;-0.08;100.00;100241.72;4921664;28;20238;-73
2023/01/21 00:16:04;;;;;;;11.45;2.63;;;0.80;99.90;;;-0.11;100.00;100239.84;4928278;28;20230;-73
2023/01/21 00:18:32;;;;;;;8.23;1.83;;;0.10;99.90;;;-0.08;100.00;100239.09;4921928;29;20372;-73
2023/01/21 00:20:59;;;;;;;16.42;3.95;;;0.80;99.90;;;-0.13;100.00;100246.69;4923732;28;20297;-73
2023/01/21 00:23:26;;;;;;;7.50;1.70;;;0.10;99.90;;;-0.16;100.00;100256.94;4925324;28;20234;-73
2023/01/21 00:26:02;;;;;;;9.20;2.25;;;0.00;99.90;;;-0.13;100.00;100258.78;4922854;28;20258;-73
2023/01/21 00:28:32;;;;;;;9.25;1.98;;;0.30;99.90;;;-0.12;100.00;100261.47;4927262;29;20694;-73
2023/01/21 00:31:02;;;;;;;10.85;2.55;;;0.10;99.90;;;-0.12;100.00;100264.06;4924005;28;20234;-73
2023/01/21 00:33:31;;;;;;;8.88;2.08;;;1.10;99.90;;;-0.15;100.00;100271.72;4923624;28;20372;-73
2023/01/21 00:36:09;;;;;;;9.13;2.05;;;0.10;99.90;;;-0.15;100.00;100276.00;4938858;28;20231;-73
2023/01/21 00:38:37;;;;;;;10.45;2.22;;;0.10;99.90;;;-0.14;100.00;100278.69;4924747;28;20289;-73
2023/01/21 00:41:09;;;;;;;9.60;2.25;;;0.00;99.90;;;-0.16;100.00;100282.91;4917813;29;20313;-73
2023/01/21 00:43:36;;;;;;;12.15;2.67;;;0.10;99.90;;;-0.13;100.00;100282.19;4921254;28;20684;-73
2023/01/21 00:46:03;;;;;;;10.57;2.50;;;0.10;99.90;;;-0.12;100.00;100290.06;4924094;28;20222;-73
2023/01/21 00:48:30;;;;;;;10.95;2.42;;;0.10;99.90;;;-0.13;100.00;100292.56;4925819;28;20309;-73
2023/01/21 00:50:59;;;;;;;11.73;2.65;;;0.10;99.90;;;-0.14;100.00;100296.00;4916296;28;20231;-73
2023/01/21 00:53:30;;;;;;;9.68;2.10;;;0.20;99.90;;;-0.15;100.00;100308.09;4922278;28;20249;-73
2023/01/21 00:56:02;;;;;;;11.30;2.63;;;0.10;99.90;;;-0.14;100.00;100311.59;4923596;29;20251;-73
2023/01/21 00:58:30;;;;;;;10.82;2.35;;;0.10;99.90;;;-0.11;100.00;100315.22;4927764;29;20573;-73
2023/01/21 01:01:13;;;;;;;11.88;2.72;;;0.10;99.90;;;-0.13;100.00;100319.47;4933309;28;20309;-73
2023/01/21 01:03:41;;;;;;;8.25;1.85;;;0.10;99.90;;;-0.11;100.00;100333.41;4923183;28;20230;-73
2023/01/21 01:06:12;;;;;;;11.20;2.45;;;0.20;99.90;;;-0.13;100.00;100335.06;4927688;28;20277;-73
2023/01/21 01:08:40;;;;;;;12.65;2.72;;;0.10;99.90;;;-0.14;100.00;100342.78;4924532;23;20253;-74
2023/01/21 01:11:07;;;;;;;16.83;3.50;;;0.50;99.90;;;-0.12;100.00;100342.03;4938976;28;20285;-73
2023/01/21 01:13:35;;;;;;;13.48;2.90;;;0.10;99.90;;;-0.14;100.00;100351.47;4932026;28;20293;-74
2023/01/21 01:16:04;;;;;;;13.70;3.08;;;0.10;99.90;;;-0.10;100.00;100363.78;4928132;28;20242;-75
2023/01/21 01:18:34;;;;;;;12.90;2.72;;;0.10;99.90;;;-0.12;100.00;100368.03;4932191;29;20248;-74
2023/01/21 01:21:02;;;;;;;18.10;4.25;;;0.10;99.90;;;-0.12;100.00;100377.53;4930610;29;20259;-74
2023/01/21 01:23:29;;;;;;;9.93;2.20;;;0.70;99.90;;;-0.12;100.00;100390.53;4927408;28;20317;-72
2023/01/21 01:26:03;;;;;;;11.63;2.60;;;0.10;99.90;;;-0.12;100.00;100394.03;4929068;28;20234;-73
2023/01/21 01:28:32;;;;;;;14.15;3.08;;;0.10;99.90;;;-0.15;100.00;100412.06;4944407;28;20226;-73
2023/01/21 01:31:00;;;;;;;11.05;2.53;;;0.10;99.90;;;-0.14;100.00;100412.94;4925450;29;20242;-73
2023/01/21 01:33:27;;;;;;;9.63;2.10;;;0.80;99.90;;;-0.14;100.00;100425.94;4933384;29;20258;-73
2023/01/21 01:35:54;;;;;;;18.45;4.03;;;0.10;99.90;;;-0.17;100.00;100434.47;4931056;29;20226;-72
2023/01/21 01:38:22;;;;;;;11.35;2.45;;;0.10;99.90;;;-0.21;100.00;100436.84;4931227;29;20669;-73
2023/01/21 01:40:52;;;;;;;10.55;2.33;;;0.00;99.90;;;-0.27;100.00;100447.81;4929650;29;20227;-73
2023/01/21 01:43:26;;;;;;;13.52;3.00;;;0.00;99.90;;;-0.29;100.00;100449.44;4935207;29;20653;-73
2023/01/21 01:45:53;;;;;;;10.57;2.45;;;0.00;99.90;;;-0.33;100.00;100455.28;4939926;28;20321;-73
2023/01/21 01:48:27;;;;;;;17.25;3.75;;;0.50;99.90;;;-0.32;100.00;100464.88;4931629;29;20321;-72
2023/01/21 01:50:59;;;;;;;10.68;2.42;;;-0.10;99.90;;;-0.30;100.00;100471.03;4928706;29;20298;-73
2023/01/21 01:53:29;;;;;;;12.20;2.70;;;-0.10;99.90;;;-0.28;100.00;100478.91;4911656;29;20247;-73
2023/01/21 01:55:57;;;;;;;11.32;2.63;;;-0.10;99.90;;;-0.27;100.00;100484.19;4933062;29;20313;-73
2023/01/21 01:58:25;;;;;;;13.15;2.78;;;-0.10;99.90;;;-0.25;100.00;100494.66;4933386;29;20357;-74
2023/01/21 02:00:51;;;;;;;10.15;2.30;;;0.00;99.90;;;-0.26;100.00;100495.47;4953181;28;20253;-73
2023/01/21 02:06:05;;;;;;;17.15;3.75;;;0.70;99.90;;;-0.21;100.00;100505.31;4933462;29;20238;-73
2023/01/21 02:08:38;;;;;;;8.65;1.95;;;0.00;99.90;;;-0.18;100.00;100514.97;4933854;29;20805;-73
2023/01/21 02:11:17;;;;;;;45.70;9.57;;;0.00;99.90;;;-0.20;100.00;100517.47;4934246;28;20239;-73
2023/01/21 02:13:53;;;;;;;16.42;3.47;;;0.00;99.90;;;-0.15;100.00;100522.94;4931206;28;20239;-73
2023/01/21 02:16:35;;;;;;;10.15;2.30;;;0.00;99.90;;;-0.10;100.00;100530.16;4937580;28;20230;-73
2023/01/21 02:19:17;;;;;;;12.85;2.83;;;0.10;99.90;;;-0.14;100.00;100536.00;4930179;28;20250;-73
2023/01/21 02:22:24;;;;;;;11.75;2.60;;;0.40;99.90;;;-0.15;100.00;100538.53;4946661;28;20238;-73
2023/01/21 02:25:20;;;;;;;8.23;1.88;;;0.10;99.90;;;-0.12;100.00;100538.69;4903386;29;20322;-75
2023/01/21 02:28:08;;;;;;;7.85;1.77;;;0.10;99.90;;;-0.16;100.00;100547.13;4896614;29;20314;-75
2023/01/21 02:31:16;;;;;;;14.35;3.15;;;0.10;99.90;;;-0.22;100.00;100555.50;4913494;29;20231;-75
2023/01/21 02:34:23;;;;;;;9.00;2.00;;;0.00;99.90;;;-0.18;100.00;100564.34;4931453;28;20239;-75
2023/01/21 02:37:01;;;;;;;11.55;2.60;;;0.00;99.90;;;-0.13;100.00;100570.69;4937132;28;20266;-76
2023/01/21 02:40:07;;;;;;;8.80;2.00;;;0.00;99.90;;;-0.14;100.00;100582.78;4927559;28;20656;-75
2023/01/21 02:42:45;;;;;;;9.63;2.60;;;0.50;99.90;;;-0.16;100.00;100588.72;4935623;28;20291;-75
2023/01/21 02:45:19;;;;;;;14.77;3.20;;;0.70;99.90;;;-0.14;100.00;100584.50;4929665;29;20225;-75
2023/01/21 02:48:15;;;;;;;10.05;2.30;;;0.00;99.90;;;-0.15;100.00;100594.00;4944578;28;20314;-75
2023/01/21 02:50:48;;;;;;;8.73;2.00;;;0.10;99.90;;;-0.13;100.00;100604.47;4912850;29;20235;-75
2023/01/21 02:53:30;;;;;;;10.02;2.30;;;0.00;99.90;;;-0.19;100.00;100605.03;4920189;29;20237;-75
2023/01/21 02:56:07;;;;;;;11.20;2.55;;;0.00;99.90;;;-0.21;100.00;100614.47;4932437;28;20253;-75
2023/01/21 02:58:39;;;;;;;13.38;2.92;;;0.00;99.90;;;-0.21;100.00;100621.34;4933132;28;20689;-75
2023/01/21 03:01:34;;;;;;;10.88;2.40;;;0.00;99.90;;;-0.22;100.00;100632.56;4929090;28;20237;-75
2023/01/21 03:04:10;;;;;;;13.25;2.97;;;0.00;99.90;;;-0.17;100.00;100629.41;4930547;28;20238;-75
2023/01/21 03:07:10;;;;;;;12.05;2.60;;;0.00;99.90;;;-0.18;100.00;100643.22;4928633;28;20254;-75
2023/01/21 03:09:37;;;;;;;11.32;2.60;;;0.10;99.90;;;-0.18;100.00;100643.22;4926094;28;20290;-75
2023/01/21 03:12:30;;;;;;;21.13;4.63;;;0.00;99.90;;;-0.19;100.00;100640.53;4930005;28;20329;-75
2023/01/21 03:18:23;;;;;;;12.10;2.72;;;0.00;99.90;;;-0.19;100.00;100650.94;4928063;28;20293;-75
2023/01/21 03:20:56;;;;;;;11.25;2.50;;;0.00;99.90;;;-0.18;100.00;100661.41;4928813;28;20226;-75
2023/01/21 03:23:37;;;;;;;12.75;2.78;;;0.30;99.90;;;-0.24;100.00;100662.78;4925864;28;20246;-75
2023/01/21 03:26:08;;;;;;;13.48;3.13;;;0.00;99.90;;;-0.29;100.00;100672.91;4909354;28;20326;-75
2023/01/21 03:28:44;;;;;;;15.85;3.47;;;-0.10;99.90;;;-0.35;100.00;100664.78;4941645;28;20230;-75
2023/01/21 03:31:20;;;;;;;14.48;3.15;;;-0.10;99.90;;;-0.45;100.00;100673.75;4936650;28;20253;-75
2023/01/21 03:33:49;;;;;;;10.75;2.60;;;-0.20;99.90;;;-0.42;100.00;100686.91;4928633;28;20310;-75
2023/01/21 03:36:37;;;;;;;14.52;3.17;;;-0.20;99.90;;;-0.44;100.00;100685.03;4934715;28;20293;-75
2023/01/21 03:39:17;;;;;;;19.55;4.30;;;-0.30;99.90;;;-0.50;100.00;100693.38;4928563;28;20269;-75
2023/01/21 03:41:44;;;;;;;11.05;2.50;;;-0.30;99.90;;;-0.52;100.00;100691.50;4921307;28;20246;-75
2023/01/21 03:44:11;;;;;;;10.98;2.47;;;-0.30;99.90;;;-0.59;100.00;100695.47;4940889;28;20242;-75
2023/01/21 03:46:48;;;;;;;13.57;2.97;;;0.10;99.90;;;-0.59;100.00;100694.56;4922189;28;20267;-75
2023/01/21 03:49:29;;;;;;;14.25;3.13;;;-0.40;99.90;;;-0.59;100.00;100697.16;4925889;28;20226;-75
2023/01/21 03:52:00;;;;;;;11.52;2.58;;;-0.40;99.90;;;-0.63;100.00;100700.38;4937632;28;20266;-75
2023/01/21 03:54:27;;;;;;;8.77;2.13;;;-0.40;99.90;;;-0.73;100.00;100709.34;4936443;28;20277;-75
2023/01/21 03:56:54;;;;;;;9.65;2.30;;;-0.50;99.90;;;-0.71;100.00;100705.13;4931542;28;20237;-75
2023/01/21 03:59:21;;;;;;;10.00;2.20;;;-0.50;99.90;;;-0.75;100.00;100711.84;4945921;28;20254;-75
2023/01/21 04:01:48;;;;;;;10.95;2.60;;;-0.50;99.90;;;-0.80;100.00;100712.41;4930556;28;20234;-75
2023/01/21 04:04:15;;;;;;;9.93;2.25;;;-0.60;99.90;;;-0.89;100.00;100710.16;4932888;28;20227;-75
2023/01/21 04:06:42;;;;;;;13.18;2.90;;;-0.60;99.90;;;-0.94;100.00;100711.59;4932081;28;20301;-75
2023/01/21 04:09:10;;;;;;;23.10;4.80;;;-0.70;99.90;;;-0.99;100.00;100716.50;4923816;28;20254;-75
2023/01/21 04:11:37;;;;;;;9.52;2.20;;;-0.70;99.90;;;-1.03;100.00;100717.13;4931927;28;20277;-74
2023/01/21 04:14:04;;;;;;;13.48;3.00;;;-0.80;99.90;;;-1.12;100.00;100724.38;4932311;28;20238;-75
2023/01/21 04:16:31;;;;;;;9.43;2.15;;;-0.50;99.90;;;-1.14;100.00;100728.56;4938415;28;20307;-75
2023/01/21 04:18:58;;;;;;;14.43;3.30;;;-0.90;99.90;;;-1.19;100.00;100735.19;4938265;28;20325;-75
2023/01/21 04:21:25;;;;;;;20.08;4.22;;;-0.90;99.90;;;-1.20;100.00;100737.69;4930581;28;20337;-75
2023/01/21 04:23:53;;;;;;;13.75;3.13;;;-1.00;99.90;;;-1.17;100.00;100738.78;4940654;28;20230;-74
2023/01/21 04:26:20;;;;;;;11.13;2.50;;;-1.00;99.90;;;-1.28;100.00;100742.41;4932582;28;20249;-74
2023/01/21 04:28:47;;;;;;;11.77;2.55;;;-1.00;99.90;;;-1.23;100.00;100756.56;4932726;28;20227;-74
2023/01/21 04:31:14;;;;;;;15.95;3.22;;;-1.00;99.90;;;-1.32;100.00;100748.19;4939826;28;20317;-75
2023/01/21 04:33:41;;;;;;;16.70;3.50;;;-1.10;99.90;;;-1.41;100.00;100743.34;4933823;28;20269;-75
2023/01/21 04:36:08;;;;;;;13.70;2.92;;;-1.10;99.90;;;-1.41;100.00;100743.34;4940341;28;20346;-74
2023/01/21 04:38:35;;;;;;;10.57;2.38;;;-1.20;99.90;;;-1.45;100.00;100753.44;4934818;28;20238;-75
2023/01/21 04:41:02;;;;;;;13.38;3.08;;;-1.20;99.90;;;-1.46;100.00;100754.22;4933113;28;20284;-74
2023/01/21 04:43:29;;;;;;;10.20;2.28;;;-1.20;99.90;;;-1.47;100.00;100763.72;4937053;28;20246;-75
2023/01/21 04:45:56;;;;;;;10.75;2.50;;;-1.20;99.90;;;-1.60;100.00;100761.16;4950432;28;20226;-75
2023/01/21 04:48:23;;;;;;;10.68;2.40;;;-1.30;99.90;;;-1.61;100.00;100768.03;4935156;28;20230;-75
2023/01/21 04:50:50;;;;;;;11.05;2.50;;;-1.30;99.90;;;-1.55;100.00;100774.41;4929714;28;20285;-74
2023/01/21 04:53:17;;;;;;;10.05;2.25;;;-1.40;99.90;;;-1.65;100.00;100771.25;4933819;28;20254;-74
2023/01/21 04:55:44;;;;;;;11.43;2.78;;;-1.40;99.90;;;-1.63;100.00;100780.00;4936217;28;20396;-75
2023/01/21 04:58:11;;;;;;;7.45;1.77;;;-1.40;99.90;;;-1.70;100.00;100784.72;4930613;28;20302;-75
2023/01/21 05:00:38;;;;;;;11.07;2.42;;;-1.50;99.90;;;-1.75;100.00;100780.94;4939723;28;20332;-75
2023/01/21 05:03:05;;;;;;;12.82;2.97;;;-1.50;99.90;;;-1.81;100.00;100786.63;4938669;28;20326;-75
2023/01/21 05:05:32;;;;;;;10.57;2.35;;;-1.50;99.90;;;-1.84;100.00;100791.63;4935817;28;20242;-75
2023/01/21 05:07:59;;;;;;;14.45;3.25;;;-1.60;99.90;;;-1.96;100.00;100786.53;4934959;28;20325;-75
2023/01/21 05:10:26;;;;;;;9.90;2.10;;;-1.70;99.90;;;-2.01;100.00;100781.88;4935059;28;20250;-74
2023/01/21 05:12:54;;;;;;;11.95;2.70;;;-1.70;99.90;;;-2.08;100.00;100795.22;4941206;28;20325;-75
2023/01/21 05:15:21;;;;;;;10.25;2.17;;;-1.80;99.90;;;-2.07;100.00;100808.28;4933206;28;20697;-75
2023/01/21 05:17:48;;;;;;;12.07;2.63;;;-1.80;99.90;;;-2.17;100.00;100810.19;4935452;28;20313;-75
2023/01/21 05:20:15;;;;;;;8.55;1.95;;;-1.90;99.90;;;-2.22;100.00;100815.06;4937147;28;20238;-75
2023/01/21 05:22:46;;;;;;;9.68;2.22;;;-1.90;99.90;;;-2.06;100.00;100829.91;4939658;28;20285;-75
2023/01/21 05:25:14;;;;;;;13.10;2.75;;;-1.90;99.90;;;-2.18;100.00;100840.38;4938752;28;20230;-75
2023/01/21 05:27:41;;;;;;;9.80;2.10;;;-1.90;99.90;;;-2.15;100.00;100845.75;4943766;28;20312;-75
2023/01/21 05:30:09;;;;;;;12.23;2.65;;;-1.20;99.90;;;-2.26;100.00;100849.31;4927027;28;20262;-75
2023/01/21 05:32:36;;;;;;;11.65;2.47;;;-2.00;99.90;;;-2.30;100.00;100848.22;4951645;28;20663;-75
2023/01/21 05:35:04;;;;;;;13.57;3.03;;;-2.00;99.90;;;-2.33;100.00;100857.50;4934008;28;20325;-75
2023/01/21 05:37:31;;;;;;;9.73;2.10;;;-2.00;99.90;;;-2.36;100.00;100868.53;4934431;28;20253;-75
2023/01/21 05:39:58;;;;;;;15.48;3.42;;;-2.10;99.90;;;-2.38;100.00;100877.91;4941376;28;20265;-74
2023/01/21 05:42:25;;;;;;;13.23;2.83;;;-2.10;99.90;;;-2.38;100.00;100883.09;4934438;28;20250;-74
2023/01/21 05:44:52;;;;;;;13.32;2.90;;;-2.10;99.90;;;-2.32;100.00;100892.97;4935209;28;20241;-75
2023/01/21 05:47:19;;;;;;;13.45;2.80;;;-2.10;99.90;;;-2.42;100.00;100894.03;4939234;28;20230;-74
2023/01/21 05:49:47;;;;;;;9.82;2.17;;;-2.20;99.90;;;-2.43;100.00;100904.28;4936305;28;20238;-74
2023/01/21 05:52:14;;;;;;;13.82;2.95;;;-1.70;99.90;;;-2.54;100.00;100902.66;4937212;28;20262;-74
2023/01/21 05:54:41;;;;;;;11.85;2.53;;;-2.30;99.90;;;-2.50;100.00;100915.03;4944320;28;20263;-74
2023/01/21 05:57:27;;;;;;;10.68;2.30;;;-2.30;99.90;;;-2.56;100.00;100917.19;4934235;28;20290;-74
2023/01/21 05:59:54;;;;;;;15.40;3.35;;;-2.30;99.90;;;-2.58;100.00;100925.75;4944212;28;20233;-74
2023/01/21 06:02:21;;;;;;;13.65;3.00;;;-2.30;99.90;;;-2.82;100.00;100923.13;4948815;28;20281;-74
2023/01/21 06:04:48;;;;;;;9.07;2.00;;;-2.50;99.90;;;-2.89;100.00;100937.31;4935564;28;20237;-76
2023/01/21 06:07:15;;;;;;;11.57;2.47;;;-2.60;99.90;;;-2.86;100.00;100941.81;4935670;28;20254;-74
2023/01/21 06:09:42;;;;;;;13.40;2.72;;;-2.60;99.90;;;-2.85;100.00;100957.47;4935189;29;20242;-75
2023/01/21 06:12:09;;;;;;;14.75;3.05;;;-2.60;99.90;;;-2.85;100.00;100962.63;4933028;28;20234;-74
2023/01/21 06:14:36;;;;;;;10.93;2.35;;;-2.50;99.90;;;-2.95;100.00;100955.91;4933893;28;20230;-75
2023/01/21 06:17:03;;;;;;;12.88;2.83;;;-2.60;99.90;;;-3.03;100.00;100966.50;4931875;28;20253;-75
2023/01/21 06:19:31;;;;;;;11.25;2.42;;;-2.70;99.90;;;-3.15;100.00;100966.53;4933170;28;20260;-76
2023/01/21 06:21:58;;;;;;;12.98;2.95;;;-2.80;99.90;;;-3.33;100.00;100968.69;4934948;28;20325;-75
2023/01/21 06:24:25;;;;;;;13.50;2.83;;;-3.00;99.90;;;-3.19;100.00;100976.53;4934878;28;20241;-75
2023/01/21 06:26:52;;;;;;;14.40;2.97;;;-2.90;99.90;;;-3.25;100.00;100988.25;4936027;28;20230;-75
2023/01/21 06:29:19;;;;;;;15.35;3.17;;;-2.60;99.90;;;-3.18;100.00;100997.34;4941397;28;20546;-75
2023/01/21 06:31:46;;;;;;;11.15;3.13;;;-2.90;99.90;;;-3.24;100.00;100999.50;4934625;28;20269;-75
2023/01/21 06:34:13;;;;;;;15.13;3.03;;;-2.90;99.90;;;-3.22;100.00;101010.84;4936782;28;20230;-77
2023/01/21 06:36:41;;;;;;;11.38;2.47;;;-2.90;99.90;;;-3.30;100.00;101012.88;4932806;28;20321;-76
2023/01/21 06:39:09;;;;;;;13.25;2.90;;;-3.00;99.90;;;-3.29;100.00;101018.94;4931468;28;20243;-77
2023/01/21 06:41:37;;;;;;;11.02;2.40;;;-3.00;99.90;;;-3.31;100.00;101026.59;4931824;28;20238;-76
2023/01/21 06:44:04;;;;;;;21.00;4.43;;;-3.00;99.90;;;-3.31;100.00;101034.34;4931471;28;20289;-76
2023/01/21 06:46:31;;;;;;;11.80;2.50;;;-3.00;99.90;;;-3.29;100.00;101042.22;4933190;28;20230;-76
2023/01/21 06:48:59;;;;;;;12.75;2.88;;;-3.00;99.90;;;-3.36;100.00;101047.75;4934054;28;20230;-76
2023/01/21 06:51:26;;;;;;;26.85;4.93;;;-3.00;99.90;;;-3.30;100.00;101055.94;4944536;28;20243;-76
2023/01/21 06:53:53;;;;;;;12.85;2.78;;;-3.00;99.90;;;-3.34;100.00;101053.91;4933180;28;20319;-76
2023/01/21 06:56:21;;;;;;;13.25;2.80;;;-3.00;99.90;;;-3.23;100.00;101071.13;4933586;28;20254;-76
2023/01/21 06:58:48;;;;;;;10.10;2.17;;;-3.00;99.90;;;-3.29;100.00;101073.25;4932897;28;20258;-76
2023/01/21 07:01:15;;;;;;;16.90;3.40;;;-3.00;99.90;;;-3.36;100.00;101077.09;4946701;28;20267;-75
2023/01/21 07:03:43;;;;;;;10.40;2.25;;;-3.00;99.90;;;-3.34;100.00;101083.28;4939182;28;20230;-76
2023/01/21 07:06:10;;;;;;;11.48;2.50;;;-3.00;99.90;;;-3.34;100.00;101084.97;4932765;28;20234;-77
2023/01/21 07:08:37;;;;;;;89.05;14.90;;;-3.00;99.90;;;-3.36;100.00;101094.28;4951647;23;20254;-75
2023/01/21 07:11:04;;;;;;;13.05;2.75;;;-3.00;99.90;;;-3.39;100.00;101091.47;4911750;28;20314;-72
2023/01/21 07:13:31;;;;;;;14.70;3.05;;;-3.10;99.90;;;-3.45;100.00;101086.75;4914295;29;20231;-72
2023/01/21 07:16:01;;;;;;;17.30;3.50;;;-3.10;99.90;;;-3.34;100.00;101097.88;4911030;29;20291;-72
2023/01/21 07:18:31;;;;;;;13.88;2.80;;;-3.10;99.90;;;-3.37;100.00;101102.84;4907775;28;20247;-72
2023/01/21 07:23:37;;;;;;;13.68;2.78;;;-3.10;99.90;;;-3.32;100.00;101112.72;4938007;23;20241;-73
2023/01/21 07:26:04;;;;;;;15.60;3.20;;;-3.00;99.90;;;-3.37;100.00;101118.34;4929463;28;20223;-72
2023/01/21 07:28:32;;;;;;;14.70;3.13;;;-3.10;99.90;;;-3.39;100.00;101125.09;4930695;29;20280;-72
2023/01/21 07:31:00;;;;;;;19.25;3.75;;;-3.10;99.90;;;-3.42;100.00;101127.44;4933142;29;20765;-73
2023/01/21 07:33:28;;;;;;;7.97;1.80;;;-3.10;99.90;;;-3.44;100.00;101136.78;4930588;29;20230;-72
2023/01/21 07:35:56;;;;;;;17.50;3.63;;;-3.20;99.90;;;-3.45;100.00;101137.56;4945110;28;20234;-73
2023/01/21 07:38:23;;;;;;;9.52;2.17;;;-3.20;99.90;;;-3.41;100.00;101140.50;4929152;28;20250;-71
2023/01/21 07:40:50;;;;;;;11.85;2.42;;;-3.10;99.90;;;-3.38;100.00;101143.31;4939812;28;20238;-70
2023/01/21 07:43:18;;;;;;;11.90;2.45;;;-3.10;99.90;;;-3.46;100.00;101147.00;4932797;28;20234;-71
2023/01/21 07:45:45;;;;;;;9.18;2.45;;;-3.00;99.90;;;-3.52;100.00;101154.28;4928227;28;20223;-70
2023/01/21 07:48:12;;;;;;;16.38;3.35;;;-3.20;99.90;;;-3.39;100.00;101169.06;4936578;28;20293;-72
2023/01/21 07:50:39;;;;;;;10.68;2.22;;;-3.20;99.90;;;-3.56;100.00;101163.50;4926186;28;20263;-73
2023/01/21 07:53:07;;;;;;;22.85;4.55;;;-3.30;99.90;;;-3.50;100.00;101176.00;4930414;29;20293;-71
2023/01/21 07:55:34;;;;;;;13.32;2.75;;;-3.30;99.90;;;-3.59;100.00;101175.28;4931440;28;20257;-71
2023/01/21 07:58:01;;;;;;;12.43;2.83;;;-3.30;99.90;;;-3.46;100.00;101184.88;4928788;28;20298;-73
2023/01/21 08:00:28;;;;;;;14.95;3.15;;;-3.30;99.90;;;-3.50;100.00;101190.59;4933424;29;20239;-74
2023/01/21 08:02:57;;;;;;;13.45;3.00;;;-3.20;99.90;;;-3.48;100.00;101191.63;4932918;29;20245;-74
2023/01/21 08:05:27;;;;;;;13.57;2.85;;;-3.20;99.90;;;-3.45;100.00;101208.28;4933072;29;20242;-74
2023/01/21 08:07:57;;;;;;;14.75;3.08;;;-3.20;99.90;;;-3.38;100.00;101217.41;4931220;29;20289;-71
2023/01/21 08:10:24;;;;;;;11.45;2.42;;;-3.20;99.90;;;-3.45;100.00;101210.88;4925305;28;20325;-71
2023/01/21 08:12:51;;;;;;;15.18;3.17;;;-3.20;99.90;;;-3.34;100.00;101219.44;4930576;28;20287;-72
2023/01/21 08:15:18;;;;;;;17.83;3.63;;;-2.20;99.90;;;-3.37;100.00;101227.88;4921998;28;20230;-72
2023/01/21 08:17:47;;;;;;;8.70;1.95;;;-3.10;99.90;;;-3.28;100.00;101243.19;4925565;29;20238;-72
2023/01/21 08:20:14;;;;;;;12.98;2.67;;;-3.10;99.90;;;-3.31;100.00;101246.44;4924824;29;20262;-70
2023/01/21 08:22:41;;;;;;;9.00;2.00;;;-3.00;99.90;;;-3.33;100.00;101247.09;4932797;29;20233;-71
2023/01/21 08:25:09;;;;;;;8.15;2.05;;;-3.10;99.90;;;-3.25;100.00;101254.66;4933054;28;20234;-71
2023/01/21 08:27:37;;;;;;;11.63;2.47;;;-3.00;99.90;;;-3.23;100.00;101262.53;4933116;29;20316;-72
2023/01/21 08:30:05;;;;;;;10.05;2.22;;;-3.00;99.90;;;-3.32;100.00;101265.31;4925916;28;20294;-73
2023/01/21 08:32:32;;;;;;;10.90;2.53;;;-3.00;99.90;;;-3.26;100.00;101278.72;4926634;29;20227;-72
2023/01/21 08:34:59;;;;;;;16.67;3.47;;;-3.00;99.90;;;-3.18;100.00;101281.91;4929283;29;20298;-72
2023/01/21 08:37:26;;;;;;;12.68;3.58;;;-3.00;99.90;;;-3.13;100.00;101293.50;4922429;29;20290;-73
2023/01/21 08:39:53;;;;;;;9.57;2.13;;;-2.90;99.90;;;-3.23;100.00;101297.06;4931643;28;20261;-73
2023/01/21 08:42:20;;;;;;;8.20;1.83;;;-2.90;99.90;;;-3.03;100.00;101311.53;4923897;29;20265;-74
2023/01/21 08:44:49;;;;;;;9.73;2.15;;;-2.80;99.90;;;-2.99;100.00;101317.84;4926350;28;20234;-74
2023/01/21 08:47:17;;;;;;;9.55;2.10;;;-2.80;99.90;;;-3.04;100.00;101314.00;4928132;29;20250;-73
2023/01/21 08:49:44;;;;;;;9.80;2.15;;;-2.80;99.90;;;-3.04;100.00;101325.28;4931599;29;20262;-72
2023/01/21 08:52:11;;;;;;;10.73;2.33;;;-2.80;99.90;;;-2.89;100.00;101330.72;4931103;28;20313;-72
2023/01/21 08:54:40;;;;;;;17.30;3.55;;;-2.70;99.90;;;-2.86;100.00;101335.22;4928255;28;20290;-72
2023/01/21 08:57:07;;;;;;;15.85;3.50;;;-2.70;99.90;;;-2.78;100.00;101342.78;4930258;29;20234;-72
2023/01/21 08:59:34;;;;;;;14.40;3.00;;;-2.60;99.90;;;-2.68;100.00;101349.56;4921955;29;20234;-72
2023/01/21 09:02:01;;;;;;;17.73;3.67;;;-2.50;99.90;;;-2.68;100.00;101346.97;4924527;28;20279;-72
2023/01/21 09:04:29;;;;;;;10.20;2.15;;;-2.50;99.90;;;-2.66;100.00;101356.66;4930468;28;20234;-72
2023/01/21 09:06:56;;;;;;;28.27;5.70;;;-2.30;99.90;;;-2.56;100.00;101365.16;4926573;29;20231;-72
2023/01/21 09:09:23;;;;;;;16.25;3.30;;;-2.40;99.90;;;-2.29;100.00;101368.16;4928710;28;20239;-73
2023/01/21 09:11:51;;;;;;;16.65;3.50;;;-2.20;99.90;;;-2.37;100.00;101382.22;4926925;28;20262;-73
2023/01/21 09:14:19;;;;;;;14.10;2.95;;;-2.10;99.90;;;-2.23;100.00;101391.03;4924621;28;20231;-71
2023/01/21 09:16:49;;;;;;;8.23;1.88;;;-2.00;99.90;;;-2.22;100.00;101387.66;4926121;28;20281;-72
2023/01/21 09:19:17;;;;;;;11.00;2.38;;;-2.00;99.90;;;-2.09;100.00;101402.41;4916394;28;20562;-71
2023/01/21 09:21:44;;;;;;;7.65;1.77;;;-2.00;99.90;;;-2.18;100.00;101399.13;4930445;29;20293;-70
2023/01/21 09:24:12;;;;;;;10.85;2.28;;;-2.00;99.90;;;-2.10;100.00;101410.97;4929619;28;20241;-71
2023/01/21 09:26:42;;;;;;;7.57;1.73;;;-2.00;99.90;;;-2.13;100.00;101402.97;4929594;28;20313;-72
2023/01/21 09:29:15;;;;;;;12.95;2.70;;;-2.00;99.90;;;-2.02;100.00;101422.81;4931853;28;20235;-72
2023/01/21 09:31:42;;;;;;;5.90;1.42;;;-1.90;99.90;;;-1.95;100.00;101435.44;4936230;28;20237;-71
2023/01/21 09:34:10;;;;;;;5.97;1.40;;;-1.70;99.90;;;-1.98;100.00;101430.94;4932796;28;20235;-72
2023/01/21 09:36:38;;;;;;;25.38;5.03;;;-1.80;99.90;;;-2.06;100.00;101428.56;4929613;29;20261;-73
2023/01/21 09:39:06;;;;;;;6.43;1.65;;;-1.90;99.90;;;-1.89;100.00;101447.97;4928728;29;20266;-73
2023/01/21 09:41:38;;;;;;;6.95;1.58;;;-1.80;99.90;;;-2.05;100.00;101430.38;4927905;29;20317;-72
2023/01/21 09:44:28;;;;;;;118.60;28.67;;;-1.80;99.90;;;-1.89;100.00;101448.88;4932668;28;20281;-71
2023/01/21 09:47:22;;;;;;;245.82;62.65;;;-1.80;99.90;;;-1.87;100.00;101447.28;4922997;28;20292;-71
2023/01/21 09:50:17;;;;;;;163.95;94.93;;;-1.60;99.90;;;-1.77;100.00;101459.25;4930565;28;20226;-73
2023/01/21 09:53:03;;;;;;;109.22;48.80;;;-1.60;99.90;;;-1.67;100.00;101473.00;4941633;28;20354;-72
2023/01/21 09:55:47;;;;;;;315.80;56.87;;;-1.50;99.90;;;-1.48;100.00;101484.75;4945255;28;20230;-71
2023/01/21 09:58:37;;;;;;;322.88;61.70;;;-1.40;99.90;;;-1.47;100.00;101487.44;4929966;28;20356;-73
2023/01/21 10:01:10;;;;;;;263.35;61.72;;;-1.30;99.90;;;-1.50;100.00;101488.91;4946484;28;20324;-72
2023/01/21 10:04:02;;;;;;;14.00;3.00;;;-0.70;99.90;;;-1.38;100.00;101487.22;4915205;29;20235;-73
2023/01/21 10:06:58;;;;;;;43.10;9.63;;;-1.30;99.90;;;-1.40;100.00;101484.50;4917057;28;20262;-73
2023/01/21 10:10:07;;;;;;;9.32;2.08;;;-1.30;99.90;;;-1.25;100.00;101494.25;4923733;28;20241;-73
2023/01/21 10:13:13;;;;;;;10.98;2.53;;;-1.20;99.90;;;-1.11;100.00;101506.53;4943935;28;20245;-73
2023/01/21 10:18:39;;;;;;;15.85;3.58;;;-1.00;99.90;;;-1.16;100.00;101492.31;4864771;29;20236;-75
2023/01/21 10:21:15;;;;;;;16.30;4.07;;;-1.00;99.90;;;-1.20;100.00;101495.47;4871454;29;20293;-74
2023/01/21 10:23:52;;;;;;;23.30;6.13;;;-1.00;99.90;;;-1.13;100.00;101497.72;4847085;29;20237;-77
2023/01/21 10:26:21;;;;;;;13.90;3.22;;;-1.00;99.90;;;-1.19;100.00;101484.31;4867580;29;20241;-74
2023/01/21 10:28:52;;;;;;;15.00;3.33;;;-1.10;99.90;;;-1.18;100.00;101489.59;4873859;29;20233;-72
2023/01/21 10:31:27;;;;;;;21.27;4.50;;;-1.00;99.90;;;-1.05;100.00;101494.88;4878641;29;20232;-73